空港情報

日本の空港の気象及び、管制情報です。
気象情報はより詳細な情報が取得できる「AVIATION WEATER CENTER」 から取得しているため、VATSIMの気象情報と若干のタイムラグが生じることがあります。

VRCのフィールド設定用空港一覧はこちらをご覧ください。

RJCG Sapporo Control

RJCW / Wakkanai
VMC

NO RADAR

RADIO

08/26 2200x45

民間 civil

8000

320@8KT

29.85

RJCW 270800Z 32008KT 8000 -SHRA FEW003 BKN005 BKN010 13/12 Q1011

RJER / Rishiri

NO RADAR

REMOTE

25/07 1800x45

民間 civil

過去5時間に発表されたMETARがありません。

RJEB / Monbetsu
VMC

NO RADAR

REMOTE

32/14 2000x45

民間 civil

9999

000@1KT

29.85

RJEB 270700Z VRB01KT 9999 -SHRA FEW009 BKN060 14/11 Q1011

RJCM / Memanbetsu
VMC

NO RADAR

TOWER

36/18 2500x45

民間 civil

9999

090@3KT

29.88

RJCM 270800Z 09003KT 070V140 9999 FEW015 SCT030 BKN090 14/09 Q1012

RJEC / Asahikawa
VMC

NO RADAR

TOWER

34/16 2500x60

民間 civil

9999

000@2KT

29.88

RJEC 270800Z VRB02KT 9999 FEW025 SCT040 BKN120 15/10 Q1012

RJCN / Nakashibetsu
VMC

NO RADAR

RADIO

08/26 2000x45

民間 civil

9999

220@6KT

29.85

RJCN 270800Z 22006KT 9999 FEW025 SCT050 BKN060 15/12 Q1011

RJCK / Kushiro
VMC

NO RADAR

TOWER

17/35 2500x45

民間 civil

9999

210@11KT

29.88

RJCK 270800Z 21011KT 9999 FEW025 BKN080 13/08 Q1012

RJCO / Sapporo

RJCO_APP

TOWER

14/32 1500x30

共用 dual

過去5時間に発表されたMETARがありません。

RJCJ / Chitose

RJCC_APP

TOWER

36R/18L 3000x60
36L/18R 2700x45

自衛隊 military

過去5時間に発表されたMETARがありません。

RJCC / NewChitose
VMC

RJCC_APP

TOWER

01L/19R 3000x60
01R/19L 3000x60

民間 civil

9999

180@8KT

29.91

RJCC 270830Z 18008KT 9999 FEW015 SCT050 BKN170 15/11 Q1013 RMK 1ST015 3CU050 7AC170 A2992

RJCB / Obihiro
VMC

NO RADAR

TOWER

35/17 2500x45

民間 civil

9999

160@6KT

29.88

RJCB 270800Z 16006KT 9999 FEW015 SCT100 BKN/// 14/10 Q1012

RJEO / Okushiri

NO RADAR

REMOTE

12/30 1500x45

民間 civil

過去5時間に発表されたMETARがありません。

RJCH / Hakodate
VMC

RJCH_APP

TOWER

12/30 3000x45

民間 civil

9999

150@5KT

29.88

RJCH 270800Z 15005KT 9999 FEW040 SCT150 15/11 Q1012

RJSA / Aomori
VMC

NO RADAR

TOWER

24/06 3000x60

民間 civil

9999

040@6KT

29.88

RJSA 270800Z 04006KT 9999 FEW030 SCT/// 19/13 Q1012

RJSO / Ominato

RJSM_APP

TOWER

04/22 600x45

自衛隊 military

過去5時間に発表されたMETARがありません。

RJSM / Misawa

RJSM_APP

TOWER

10/28 3050x45

共用 dual

過去5時間に発表されたMETARがありません。

RJSH / Hachinohe

RJSM_APP

TOWER

25/07 2250x45

自衛隊 military

過去5時間に発表されたMETARがありません。

RJSK / Akita
VMC

NO RADAR

TOWER

10/28 2500x60

民間 civil

9999

300@7KT

29.85

RJSK 270800Z 30007KT 9999 FEW025 BKN/// 22/12 Q1011

RJSI / Hanamaki
VMC

NO RADAR

RADIO

20/02 2500x45

民間 civil

9999

190@13KT

29.88

RJSI 270800Z 19013KT 9999 FEW040 BKN/// 21/16 Q1012

RJSR / Odate-Noshiro
VMC

NO RADAR

REMOTE

11/29 2000x45

民間 civil

9999

280@8KT

29.85

RJSR 270800Z 28008KT 9999 FEW030 BKN/// 22/12 Q1011

RJTG Tokyo Control

RJSY / Shonai
VMC

NO RADAR

RADIO

09/27 2000x45

民間 civil

9999

340@5KT

29.85

RJSY 270800Z 34005KT 290V020 9999 FEW030 BKN/// 20/15 Q1011

RJSC / Yamagata
VMC

NO RADAR

RADIO

01/19 2000x45

民間 civil

9999

080@9KT

29.82

RJSC 270800Z 08009KT 9999 FEW020 BKN/// 25/15 Q1010

RJST / Matsushima

RJSS_APP

TOWER

07/25 2071x46
15/33 1500x46

自衛隊 military

過去5時間に発表されたMETARがありません。

RJSS / Sendai
VMC

RJSS_APP

TOWER

27/09 3000x45
12/30 1200x45

民間 civil

9999

120@9KT

29.91

RJSS 270800Z 12009KT 9999 FEW010 BKN030 19/16 Q1013

RJSD / Sado

NO RADAR

REMOTE

10/28 890x25

民間 civil

過去5時間に発表されたMETARがありません。

RJSN / Niigata
VMC

RJSN_APP

TOWER

10/28 2500x45
04/22 1314x45

民間 civil

9999

020@8KT

29.85

RJSN 270800Z 02008KT 9999 FEW030 BKN/// 21/17 Q1011

RJSF / Fukushima
VMC

NO RADAR

RADIO

01/19 2500x60

民間 civil

9999

150@6KT

29.88

RJSF 270800Z 15006KT 130V190 9999 FEW020 BKN025 23/18 Q1012

RJAH / Ibaraki/Hyakuri
VMC

RJAH_APP

TOWER

03L/21R 2700x45
03R/21L 2700x45

共用 dual

9999

070@8KT

29.88

RJAH 270834Z 07008KT 9999 FEW020 SCT040 BKN230 21/16 Q1012 RMK 1CU020 3SC040 A2989

RJTT / Tokyo
VMC

RJTT_APP

TOWER

34LR/16RL 3000x60
04/22&05/23 2500x60

民間 civil

9999

130@8KT

29.85

RJTT 270830Z 13008KT 9999 FEW015 SCT020 BKN035 24/22 Q1011 NOSIG RMK 1CU015 3SC020 7SC035 A2987

RJAA / Narita
VMC

RJTT_APP

TOWER

34L/16R 4000x60
34R/16L 2500x60

民間 civil

9999

110@6KT

29.88

RJAA 270830Z 11006KT 080V140 9999 FEW015 BKN/// 24/21 Q1012 NOSIG

RJTL / Shimofusa

RJTT_APP

TOWER

19/01 2250x45

自衛隊 military

過去5時間に発表されたMETARがありません。

RJTE / Tateyama
VMC

RJTT_APP

TOWER

09/27 300x45

自衛隊 military

9999

160@3KT

29.88

RJTE 270806Z 16003KT 120V210 9999 SCT013 SCT120 BKN230 24/21 Q1012 RMK 4CU013 3AC120 A2989

RJTO / Oshima
VMC

NO RADAR

RADIO

03/21 1800x45

民間 civil

9999

210@7KT

29.88

RJTO 270800Z 21007KT 9999 FEW006 BKN/// 23/21 Q1012

RJTK / Kisarazu
VMC

NO RADAR

TOWER

02/20 1830x45

自衛隊 military

9999

120@7KT

29.85

RJTK 270723Z 12007KT 9999 FEW015 BKN025 BKN050 25/21 Q1011 RMK 2CU015 5SC025 6SC050 A2987

RJAN / Niijima

NO RADAR

REMOTE

11/29 800x25

自衛隊 military

過去5時間に発表されたMETARがありません。

RJAZ / Kozushima

NO RADAR

REMOTE

11/29 800x25

民間 civil

過去5時間に発表されたMETARがありません。

RJTH / Hachijojima

NO RADAR

RADIO

26/08 2000x45

民間 civil

過去5時間に発表されたMETARがありません。

RJTF / Chofu
VMC

NO RADAR

Flight Service

35/17 800x30

民間 civil

6000

130@8KT

29.85

RJTF 270800Z 13008KT 090V160 6000 FEW015 SCT020 BKN030 25/19 Q1011

RJTQ / Miyake

NO RADAR

REMOTE

02/20 1200x30

民間 civil

過去5時間に発表されたMETARがありません。

RJTC / Tachikawa
VMC

NO RADAR

TOWER

01/19 900x45

自衛隊 military

9000

150@6KT

29.85

RJTC 270620Z 15006KT 120V180 9000 FEW020 BKN060 BKN080 25/18 Q1011 RMK 1SC020 5SC060 5AC080 A2988

RJTA / Atsugi

NO RADAR

TOWER

01/19 2438x45

自衛隊 military

過去5時間に発表されたMETARがありません。

RJTU / Utsunomiya
VMC

RJTY_APP

TOWER

01/19 1700x45

自衛隊 military

9999

160@8KT

29.88

RJTU 270740Z 16008KT 9999 FEW030 SCT050 BKN200 25/18 Q1012 RMK 2CU030 3SC050 6CI200 A2990

RJTJ / Iruma

RJTY_APP

TOWER

17/35 2000x45

自衛隊 military

過去5時間に発表されたMETARがありません。

RJTY / Yokota
VMC

RJTY_APP

TOWER

18/36 3353x60

自衛隊 military

9999

150@8KT

29.88

RJTY 270758Z AUTO 15008KT 9SM FEW028 24/20 A2988 RMK AO2 SLP117 T02400198

RJAF / Matsumoto
VMC

NO RADAR

RADIO

18/36 2000x45

民間 civil

9999

140@7KT

29.88

RJAF 270700Z 14007KT 110V190 9999 FEW050 SCT070 BKN090 27/15 Q1012

RJNS / Shizuoka
VMC

NO RADAR

RADIO

30/12 2500x60

民間 civil

9999

190@4KT

29.88

RJNS 270800Z 19004KT 140V220 9999 FEW010 BKN180 BKN/// 23/19 Q1012

RJNY / Yaizu-Shizuhama

NO RADAR

TOWER

27/09 1500x45

自衛隊 military

過去5時間に発表されたMETARがありません。

RJNH / Hamamatsu

RJNH_APP

TOWER

09/27 2550x60

自衛隊 military

過去5時間に発表されたMETARがありません。

RJGG / Chubu
VMC

RJGG_APP

TOWER

36/18 3500x60

民間 civil

9999

140@10KT

29.85

RJGG 270830Z 14010KT 9999 FEW006 SCT025 BKN035 23/20 Q1011 NOSIG

RJNA / Nagoya

RJGG_APP

TOWER

34/16 2740x45

民間 civil

過去5時間に発表されたMETARがありません。

RJNG / Gifu
VMC

RJGG_APP

TOWER

28/10 2710x46

自衛隊 military

9999

000@5KT

29.82

RJNG 270720Z VRB05KT 9999 FEW030 SCT150 BKN230 28/18 Q1010 RMK 1CU030 3AC150 A2984

RJOE / Akeno
VMC

RJOE_APP

TOWER

13/31 500x30
04/22 500x30

自衛隊 military

9999

140@8KT

29.85

RJOE 270729Z 14008KT 9999 FEW015 SCT025 BKN180 26/20 Q1011 RMK 1CU015 3CU025 6AC180 A2986

RJNK / Komatsu
VMC

RJNK_APP

TOWER

06/24 2700x45

共用 dual

9999

360@9KT

29.85

RJNK 270800Z 36009KT 9999 FEW030 SCT180 BKN270 22/17 Q1011

RJNW / Noto
VMC

NO RADAR

RADIO

25/07 2000x45

民間 civil

9999

130@6KT

29.88

RJNW 270800Z 13006KT 070V160 9999 FEW010 SCT015 BKN/// 20/17 Q1012

RJNT / Toyama
VMC

NO RADAR

TOWER

20/02 2000x45

民間 civil

9999

360@8KT

29.85

RJNT 270800Z 36008KT 9999 FEW020 SCT030 BKN070 23/17 Q1011

RJNF / Fukui

NO RADAR

REMOTE

18/36 1200x30

民間 civil

過去5時間に発表されたMETARがありません。

RJBD / Nanki-Shirahama
VMC

NO RADAR

RADIO

15/33 2000x45

民間 civil

9999

180@3KT

29.85

RJBD 270800Z 18003KT 130V220 9999 -RA FEW008 SCT045 BKN090 23/22 Q1011

RJOY / Yao
VMC

RJBB_APP

TOWER

27/09 1490x45
13/31 1200x30

民間 civil

9999

250@7KT

29.82

RJOY 270800Z 25007KT 210V290 9999 FEW035 SCT045 BKN/// 28/17 Q1010

RJOO / Osaka
VMC

RJBB_APP

TOWER

32L/14R 3000x60
32R/14L 1830x45

民間 civil

9999

240@8KT

29.82

RJOO 270800Z 24008KT 210V270 9999 FEW035 SCT050 BKN/// 27/15 Q1010

RJOB / Okayama
VMC

RJBB_APP

TOWER

07/25 3000x45

民間 civil

9999

120@4KT

29.85

RJOB 270800Z 12004KT 100V160 9999 FEW025 SCT150 BKN180 24/18 Q1011

RJBB / Kansai
VMC

RJBB_APP

TOWER

06R/24L 3500x60
06L/24R 4000x60

民間 civil

9999

210@8KT

29.85

RJBB 270830Z 21008KT 9999 FEW020 SCT120 BKN150 24/20 Q1011 NOSIG

RJBE / Kobe
VMC

RJBB_APP

TOWER

09/27 2500x60

民間 civil

9999

220@10KT

29.82

RJBE 270800Z 22010KT 9999 FEW030 SCT045 BKN/// 24/22 Q1010

RJBT / Tajima
VMC

NO RADAR

REMOTE

01/19 1200x30

民間 civil

9999

360@6KT

29.82

RJBT 270800Z 36006KT 9999 FEW005 SCT180 BKN/// 22/19 Q1010

RJOR / Tottori
VMC

NO RADAR

RADIO

10/28 2000x45

民間 civil

9999

030@10KT

29.82

RJOR 270800Z 03010KT 9999 FEW020 SCT150 OVC/// 22/18 Q1010

RJNO / Oki

NO RADAR

REMOTE

07/25 2000x45

民間 civil

過去5時間に発表されたMETARがありません。

RJOH / Miho
VMC

RJOH_APP

TOWER

25/07 2500x45

共用 dual

9999

040@9KT

29.85

RJOH 270800Z 04009KT 9999 FEW008 SCT010 BKN180 22/18 Q1011

RJOC / Izumo
VMC

RJOH_APP

RADIO

07/25 2000x45

共用 dual

9999

070@12KT

29.82

RJOC 270800Z 07012KT 9999 FEW015 SCT150 BKN/// 24/19 Q1010

RJDG Fukuoka Control

RJOT / Takamatsu
VMC

RJBB_APP

TOWER

26/08 2500x60

民間 civil

9999

080@2KT

29.85

RJOT 270800Z 08002KT 9999 -RA FEW010 SCT060 BKN120 24/22 Q1011

RJOK / Kochi
VMC

RJBB_APP

TOWER

32/14 2500x45

民間 civil

8000

220@3KT

29.85

RJOK 270800Z 22003KT 8000 -RA FEW010 SCT015 BKN030 24/21 Q1011

RJOS / Tokushima

RJOS_APP

TOWER

29/11 2500x45

共用 dual

過去5時間に発表されたMETARがありません。

RJOA / Hiroshima
VMC

RJOA_APP

TOWER

10/28 3000x60

民間 civil

9999

130@3KT

29.85

RJOA 270800Z 13003KT CAVOK 23/20 Q1011

RJBH / Hiroshimanishi

NO RADAR

Flight Service

04/22 1800x45

民間 civil

過去5時間に発表されたMETARがありません。

RJOI / Iwakuni
VMC

RJOI_APP

TOWER

02/20 2440x60

共用 dual

9999

150@8KT

29.83

RJOI 270755Z 15008KT 9999 FEW010 SCT060 BKN080 24/19 A2983 RMK SLP101 T02440194

RJOM / Matsuyama
VMC

RJOI_APP

TOWER

14/32 2500x45

民間 civil

8000

240@5KT

29.82

RJOM 270800Z 24005KT 8000 -RA FEW008 BKN050 BKN070 24/21 Q1010

RJOZ / Ozuki

RJFZ_APP

TOWER

35/17 1201x61
12/30 899x46

自衛隊 military

過去5時間に発表されたMETARがありません。

RJOF / Hofu
VMC

RJFZ_APP

TOWER

30/12 1180x60
01/19 1480x45

自衛隊 military

9999

190@4KT

29.82

RJOF 270719Z 19004KT 090V220 9999 -RA FEW020 SCT045 BKN080 25/19 Q1010 RMK 1CU020 3SC045 7AS080 A2984

RJDC / Yamaguchi-Ube
VMC

RJFZ_APP

RADIO

07/25 2500x45

民間 civil

9999

080@6KT

29.82

RJDC 270800Z 08006KT 9999 FEW015 BKN080 BKN/// 23/21 Q1010

RJFR / Kitakyushu
VMC

RJFZ_APP

TOWER

18/36 2500x60

民間 civil

9999

150@4KT

29.82

RJFR 270800Z 15004KT 9999 FEW005 SCT080 BKN170 24/21 Q1010

RJFZ / Tsuiki

RJFZ_APP

TOWER

25/07 2399x46

自衛隊 military

過去5時間に発表されたMETARがありません。

RJOW / Iwami
VMC

NO RADAR

REMOTE

11/29 2000x45

民間 civil

9999

000@1KT

29.82

RJOW 270800Z VRB01KT 9999 FEW030 BKN050 BKN/// 23/20 Q1010

RJDT / Tsushima
VMC

NO RADAR

REMOTE

32/14 1900x45

民間 civil

9999

050@4KT

29.82

RJDT 270800Z 05004KT 360V090 9999 FEW010 SCT015 BKN025 23/20 Q1010

RJFF / Fukuoka
VMC

RJFF_APP

TOWER

16/34 2800x60

民間 civil

9999

000@2KT

29.79

RJFF 270830Z VRB02KT 9999 FEW015 SCT040 BKN180 25/19 Q1009 RMK 1CU015 3CU040 7AC180 A2982

RJFS / Saga
VMC

RJFF_APP

RADIO

29/11 2000x45

民間 civil

7000

150@8KT

29.79

RJFS 270800Z 15008KT 7000 -RA FEW020 SCT050 BKN080 24/23 Q1009

RJFA / Ashiya

RJFF_APP

TOWER

12/30 1640x46

自衛隊 military

過去5時間に発表されたMETARがありません。

RJDB / Iki

RJFF_APP

REMOTE

20/02 1200x30

民間 civil

過去5時間に発表されたMETARがありません。

RJFO / Oita
VMC

RJFO_APP

TOWER

01/19 3000x45

民間 civil

4000

120@5KT

29.82

RJFO 270831Z 12005KT 4000 -RA BR FEW005 SCT070 BKN140 21/20 Q1010 RMK 1ST005 3AC070 6AC140 A2983

RJFU / Nagasaki
VMC

RJFU_APP

TOWER

32/14 3000x60

民間 civil

9999

280@4KT

29.82

RJFU 270800Z 28004KT 9999 -RA FEW010 SCT020 BKN150 24/23 Q1010

RJDU / Omura

RJFU_APP

TOWER

18/36 1200x30

自衛隊 military

過去5時間に発表されたMETARがありません。

RJFE / Fukue

NO RADAR

RADIO

03/21 2000x45

民間 civil

過去5時間に発表されたMETARがありません。

RJDO / Ojika

NO RADAR

REMOTE

03/21 800x30

民間 civil

過去5時間に発表されたMETARがありません。

RJDK / Kamigoto

NO RADAR

REMOTE

17/35 800x30

民間 civil

過去5時間に発表されたMETARがありません。

RJDA / Amakusa

NO RADAR

Flight Service

31/13 1000x30

民間 civil

過去5時間に発表されたMETARがありません。

RJFT / Kumamoto
VMC

RJFT_APP

TOWER

07/25 3000x45

民間 civil

2000

210@3KT

29.85

RJFT 270800Z 21003KT 2000 -SHRA BR BCFG FEW002 SCT007 BKN015 23/23 Q1011

RJFN / Nyutabaru

RJFM_APP

TOWER

28/10 2701x46

自衛隊 military

過去5時間に発表されたMETARがありません。

RJFM / Miyazaki
VMC

RJFM_APP

TOWER

27/09 2500x45

民間 civil

4000

020@4KT

29.82

RJFM 270821Z 02004KT 4000 -SHRA BR FEW002 SCT003 BKN010 23/22 Q1010 RMK 1ST002 3ST003 5ST010 A2985

RJFK / Kagoshima
VMC

RJFK_APP

TOWER

34/16 3000x45

民間 civil

8000

000@2KT

29.85

RJFK 270800Z VRB02KT 8000 -SHRA FEW001 BKN015 BKN025 22/21 Q1011 RMK 1ST001 6CU015 7CU025 A2987

RJFY / Kanoya
VMC

RJFY_APP

TOWER

26L/08R 2250x45
26R/08L 1200x40

自衛隊 military

6000

080@6KT

29.82

RJFY 270648Z 08006KT 6000 -SHRA FEW003 SCT012 BKN050 24/22 Q1010 RMK 1ST003 4CU012 7SC050 A2985

RJFG / Tanegashima
VMC

NO RADAR

RADIO

31/13 2000x45

民間 civil

9999

060@4KT

29.85

RJFG 270800Z 06004KT 340V110 9999 FEW004 SCT007 BKN020 24/22 Q1011

RJFC / Yakushima

NO RADAR

REMOTE

14/32 1500x45

民間 civil

過去5時間に発表されたMETARがありません。

RORG Naha Control

ROAH / Naha
VMC

ROAH_APP

TOWER

36/18 3000x45

共用 dual

9999

190@10KT

29.82

ROAH 270830Z 19010KT 9999 FEW020 SCT030 FEW030TCU BKN050 29/27 Q1010 RMK 1CU020 3CU030 1TCU030 5SC050 A2984 TCU E

RORA / Aguni

ROAH_APP

REMOTE

01/19 800x25

民間 civil

過去5時間に発表されたMETARがありません。

ROKJ / Kumejima

ROAH_APP

REMOTE

03/21 2000x45

民間 civil

過去5時間に発表されたMETARがありません。

RODN / Kadena
VMC

ROAH_APP

TOWER

05L/23R 3688x91
05R/23L 3688x61

自衛隊 military

9999

190@9KT

29.84

RODN 270756Z AUTO 19009KT 10SM FEW018 29/27 A2984 RMK AO2 RAB25E41 SLP110 P0000 T02910269 $

ROTM / Futenma
VMC

ROAH_APP

TOWER

06/24 2740x45

自衛隊 military

9999

190@9KT

29.85

ROTM 270758Z 19009KT 9999 SCT010 BKN050 BKN100 29/24 A2985 RMK SLP093 STNPR29555 T02890244

RORS / Shimojishima
VMC

RORS_APP

TOWER

17/35 3000x60

民間 civil

9999

170@11KT

29.79

RORS 270800Z 17011KT 9999 VCSH FEW013 FEW020CB BKN050 30/27 Q1009

ROMY / Miyako
VMC

RORS_APP

TOWER

04/22 2000x45

民間 civil

9999

170@11KT

29.79

ROMY 270800Z 17011KT 9999 VCSH SCT013 FEW020CB BKN060 30/27 Q1009

ROIG / New Ishigaki
VMC

RORS_APP

TOWER

22/04 2000x45

民間 civil

9999

080@7KT

29.79

ROIG 270800Z 08007KT 9999 FEW012 BKN040 31/27 Q1009

RORT / Tarama

RORS_APP

REMOTE

36/18 1500x45

民間 civil

過去5時間に発表されたMETARがありません。

RJKA / Amami
VMC

NO RADAR

RADIO

03/21 2000x45

民間 civil

9999

210@9KT

29.82

RJKA 270828Z 21009KT 9999 FEW004 BKN005 BKN006 28/26 Q1010 RMK 1ST004 5ST005 7ST006 A2983

RJKI / Kikai

NO RADAR

REMOTE

07/25 1200x30

民間 civil

過去5時間に発表されたMETARがありません。

RJKN / Tokunoshima

NO RADAR

REMOTE

19/01 2000x45

民間 civil

過去5時間に発表されたMETARがありません。

RJKB / Okierabu

NO RADAR

REMOTE

04/22 1350x45

民間 civil

過去5時間に発表されたMETARがありません。

RORY / Yoron
VMC

NO RADAR

REMOTE

32/14 1320x30

民間 civil

7000

210@6KT

29.82

RORY 270831Z AUTO 21006KT 180V250 7000 -RA FEW006 SCT050 BKN060 //////CB 27/26 Q1010 RMK A2984 CB OHD MOV E TCU 25KM SW MOV NE AND 40KM N MOV UNKNOWN

RORK / Kitadaito

NO RADAR

REMOTE

03/21 1500x45

民間 civil

過去5時間に発表されたMETARがありません。

ROMD / Minami-daito

NO RADAR

REMOTE

02/20 1500x45

民間 civil

過去5時間に発表されたMETARがありません。

ROYN / Yonaguni
VMC

NO RADAR

REMOTE

26/08 2000x45

民間 civil

9999

050@12KT

29.79

ROYN 270800Z AUTO 05012KT 9999 NSC 32/27 Q1009

RORH / Hateruma

NO RADAR

REMOTE

02/20 800x25

民間 civil

過去5時間に発表されたMETARがありません。

ROKR / Kerama

NO RADAR

REMOTE

02/20 800x25

民間 civil

過去5時間に発表されたMETARがありません。